createdAt,value
2017-06-28T00:00:32.373Z,20.79
2017-06-28T00:01:34.341Z,20.77
2017-06-28T00:02:36.166Z,20.79
2017-06-28T00:03:37.982Z,20.80
2017-06-28T00:04:39.846Z,20.82
2017-06-28T00:05:41.709Z,20.74
2017-06-28T00:06:43.578Z,20.70
2017-06-28T00:07:57.731Z,20.79
2017-06-28T00:08:59.617Z,20.67
2017-06-28T00:10:01.506Z,20.73
2017-06-28T00:11:03.390Z,20.77
2017-06-28T00:12:05.194Z,20.72
2017-06-28T00:13:07.019Z,20.72
2017-06-28T00:14:08.902Z,20.74
2017-06-28T00:15:10.764Z,20.73
2017-06-28T00:16:12.648Z,20.74
2017-06-28T00:17:26.786Z,20.69
2017-06-28T00:18:28.646Z,20.72
2017-06-28T00:19:30.527Z,20.70
2017-06-28T00:20:32.394Z,20.73
2017-06-28T00:21:34.214Z,20.66
2017-06-28T00:22:36.030Z,20.69
2017-06-28T00:23:37.901Z,20.61
2017-06-28T00:24:39.765Z,20.67
2017-06-28T00:25:41.649Z,20.70
2017-06-28T00:26:55.804Z,20.62
2017-06-28T00:27:57.684Z,20.55
2017-06-28T00:28:59.548Z,20.57
2017-06-28T00:30:01.414Z,20.57
2017-06-28T00:31:03.235Z,20.43
2017-06-28T00:32:05.028Z,20.28
2017-06-28T00:33:06.896Z,20.24
2017-06-28T00:34:08.782Z,20.24
2017-06-28T00:35:10.644Z,20.16
2017-06-28T00:36:24.777Z,20.29
2017-06-28T00:37:26.644Z,20.28
2017-06-28T00:38:28.532Z,20.28
2017-06-28T00:39:30.415Z,20.48
2017-06-28T00:40:32.240Z,20.42
2017-06-28T00:41:34.067Z,20.42
2017-06-28T00:42:35.946Z,20.48
2017-06-28T00:43:37.808Z,20.52
2017-06-28T00:44:39.692Z,20.51
2017-06-28T00:45:53.850Z,20.55
2017-06-28T00:46:55.733Z,20.52
2017-06-28T00:47:57.597Z,20.38
2017-06-28T00:48:59.458Z,20.48
2017-06-28T00:50:01.278Z,20.42
2017-06-28T00:51:03.078Z,20.42
2017-06-28T00:52:04.945Z,20.43
2017-06-28T00:53:06.824Z,20.41
2017-06-28T00:54:08.692Z,20.35
2017-06-28T00:55:22.826Z,20.33
2017-06-28T00:56:24.690Z,20.33
2017-06-28T00:57:26.576Z,20.16
2017-06-28T00:58:28.465Z,20.13
2017-06-28T00:59:30.290Z,20.21
2017-06-28T01:00:32.084Z,20.18
2017-06-28T01:01:33.950Z,20.16
2017-06-28T01:02:35.807Z,20.20
2017-06-28T01:03:37.674Z,20.17
2017-06-28T01:04:51.828Z,20.20
2017-06-28T01:05:53.695Z,20.10
2017-06-28T01:06:55.633Z,20.13
2017-06-28T01:07:57.586Z,20.13
2017-06-28T01:08:59.365Z,19.98
2017-06-28T01:10:01.182Z,19.94
2017-06-28T01:11:03.052Z,19.86
2017-06-28T01:12:04.936Z,19.91
2017-06-28T01:13:06.797Z,19.87
2017-06-28T01:14:20.935Z,19.83
2017-06-28T01:15:22.801Z,19.84
2017-06-28T01:16:24.683Z,19.86
2017-06-28T01:17:26.550Z,19.95
2017-06-28T01:18:28.349Z,19.96
2017-06-28T01:19:30.150Z,19.99
2017-06-28T01:20:32.032Z,19.99
2017-06-28T01:21:33.916Z,20.05
2017-06-28T01:22:35.775Z,19.98
2017-06-28T01:23:49.915Z,19.99
2017-06-28T01:24:51.809Z,19.94
2017-06-28T01:25:53.687Z,19.96
2017-06-28T01:26:55.557Z,19.96
2017-06-28T01:27:57.382Z,20.11
2017-06-28T01:28:59.198Z,20.06
2017-06-28T01:30:01.069Z,20.08
2017-06-28T01:31:02.949Z,20.11
2017-06-28T01:32:04.814Z,20.06
2017-06-28T01:33:18.939Z,20.17
2017-06-28T01:34:20.807Z,20.26
2017-06-28T01:35:22.687Z,20.24
2017-06-28T01:36:24.552Z,20.24
2017-06-28T01:37:26.375Z,20.16
2017-06-28T01:38:28.168Z,20.17
2017-06-28T01:39:30.036Z,20.16
2017-06-28T01:40:31.923Z,20.23
2017-06-28T01:41:33.808Z,20.20
2017-06-28T01:42:47.957Z,20.28
2017-06-28T01:43:49.825Z,20.18
2017-06-28T01:44:51.689Z,20.18
2017-06-28T01:45:53.572Z,20.23
2017-06-28T01:46:55.399Z,20.18
2017-06-28T01:47:57.216Z,20.21
2017-06-28T01:48:59.078Z,20.24
2017-06-28T01:50:00.944Z,20.23
2017-06-28T01:51:02.829Z,20.24
2017-06-28T01:52:16.961Z,20.20
2017-06-28T01:53:18.842Z,20.28
2017-06-28T01:54:20.706Z,20.26
2017-06-28T01:55:22.586Z,20.21
2017-06-28T01:56:24.385Z,20.21
2017-06-28T01:57:26.184Z,20.24
2017-06-28T01:58:28.074Z,20.24
2017-06-28T01:59:29.955Z,20.17
2017-06-28T02:00:31.816Z,20.21
2017-06-28T02:01:45.948Z,20.28
2017-06-28T02:02:47.831Z,20.21
2017-06-28T02:03:49.712Z,20.18
2017-06-28T02:04:51.576Z,20.24
2017-06-28T02:05:53.385Z,20.20
2017-06-28T02:06:55.203Z,20.21
2017-06-28T02:07:57.085Z,20.24
2017-06-28T02:08:58.947Z,20.18
2017-06-28T02:10:00.811Z,20.24
2017-06-28T02:11:14.946Z,20.18
2017-06-28T02:12:16.826Z,20.18
2017-06-28T02:13:18.690Z,20.18
2017-06-28T02:14:20.555Z,20.20
2017-06-28T02:15:22.378Z,20.06
2017-06-28T02:16:24.171Z,20.11
2017-06-28T02:17:26.038Z,20.11
2017-06-28T02:18:27.925Z,20.05
2017-06-28T02:19:29.789Z,19.96
2017-06-28T02:20:43.943Z,19.98
2017-06-28T02:21:45.808Z,19.91
2017-06-28T02:22:47.675Z,19.88
2017-06-28T02:23:49.563Z,19.80
2017-06-28T02:24:51.390Z,19.77
2017-06-28T02:25:53.189Z,19.74
2017-06-28T02:26:55.071Z,19.74
2017-06-28T02:27:56.942Z,19.71
2017-06-28T02:28:58.804Z,19.74
2017-06-28T02:30:12.940Z,19.63
2017-06-28T02:31:14.807Z,19.61
2017-06-28T02:32:16.679Z,19.61
2017-06-28T02:33:18.567Z,19.65
2017-06-28T02:34:20.416Z,19.61
2017-06-28T02:35:22.239Z,19.65
2017-06-28T02:36:24.123Z,19.66
2017-06-28T02:37:25.988Z,19.74
2017-06-28T02:38:27.852Z,19.74
2017-06-28T02:39:42.041Z,19.74
2017-06-28T02:40:44.054Z,19.71
2017-06-28T02:41:45.889Z,19.73
2017-06-28T02:42:47.757Z,19.66
2017-06-28T02:43:49.577Z,19.74
2017-06-28T02:44:51.381Z,19.78
2017-06-28T02:45:53.269Z,19.76
2017-06-28T02:46:55.157Z,19.76
2017-06-28T02:47:57.043Z,19.76
2017-06-28T02:49:11.196Z,19.69
2017-06-28T02:50:13.059Z,19.78
2017-06-28T02:51:14.925Z,19.83
2017-06-28T02:52:16.796Z,19.80
2017-06-28T02:53:18.621Z,19.78
2017-06-28T02:54:20.422Z,19.80
2017-06-28T02:55:22.292Z,19.81
2017-06-28T02:56:24.179Z,19.83
2017-06-28T02:57:26.066Z,19.74
2017-06-28T02:58:40.224Z,19.73
2017-06-28T02:59:42.106Z,19.78
2017-06-28T03:00:43.969Z,19.69
2017-06-28T03:01:45.837Z,19.69
2017-06-28T03:02:47.645Z,19.65
2017-06-28T03:03:49.470Z,19.61
2017-06-28T03:04:51.356Z,19.61
2017-06-28T03:05:53.244Z,19.59
2017-06-28T03:06:55.112Z,19.59
2017-06-28T03:08:09.247Z,19.55
2017-06-28T03:09:11.138Z,19.56
2017-06-28T03:10:13.029Z,19.56
2017-06-28T03:11:14.895Z,19.56
2017-06-28T03:12:16.718Z,19.55
2017-06-28T03:13:18.521Z,19.59
2017-06-28T03:14:20.386Z,19.58
2017-06-28T03:15:22.271Z,19.56
2017-06-28T03:16:24.157Z,19.62
2017-06-28T03:17:38.295Z,19.61
2017-06-28T03:18:40.181Z,19.61
2017-06-28T03:19:42.073Z,19.56
2017-06-28T03:20:43.936Z,19.56
2017-06-28T03:21:45.759Z,19.55
2017-06-28T03:22:47.561Z,19.51
2017-06-28T03:23:49.430Z,19.58
2017-06-28T03:24:51.319Z,19.55
2017-06-28T03:25:53.209Z,19.56
2017-06-28T03:27:07.365Z,19.51
2017-06-28T03:28:09.249Z,19.40
2017-06-28T03:29:11.119Z,19.41
2017-06-28T03:30:13.009Z,19.40
2017-06-28T03:31:14.830Z,19.32
2017-06-28T03:32:16.635Z,19.40
2017-06-28T03:33:18.518Z,19.43
2017-06-28T03:34:20.390Z,19.46
2017-06-28T03:35:22.279Z,19.39
2017-06-28T03:36:36.478Z,19.56
2017-06-28T03:37:38.345Z,19.55
2017-06-28T03:38:40.212Z,19.51
2017-06-28T03:39:42.100Z,19.51
2017-06-28T03:40:43.919Z,19.50
2017-06-28T03:41:45.731Z,19.58
2017-06-28T03:42:47.614Z,19.56
2017-06-28T03:43:49.486Z,19.54
2017-06-28T03:44:51.348Z,19.47
2017-06-28T03:46:05.487Z,19.43
2017-06-28T03:47:07.356Z,19.43
2017-06-28T03:48:09.245Z,19.46
2017-06-28T03:49:11.136Z,19.37
2017-06-28T03:50:12.967Z,19.39
2017-06-28T03:51:14.769Z,19.54
2017-06-28T03:52:16.654Z,19.56
2017-06-28T03:53:18.522Z,19.62
2017-06-28T03:54:20.394Z,19.59
2017-06-28T03:55:34.549Z,19.73
2017-06-28T03:56:36.415Z,19.68
2017-06-28T03:57:38.279Z,19.78
2017-06-28T03:58:40.150Z,19.76
2017-06-28T03:59:41.973Z,19.83
2017-06-28T04:00:43.773Z,19.91
2017-06-28T04:01:45.642Z,19.88
2017-06-28T04:02:47.529Z,19.91
2017-06-28T04:03:49.398Z,20.03
2017-06-28T04:05:03.554Z,19.92
2017-06-28T04:06:05.421Z,20.01
2017-06-28T04:07:07.292Z,20.02
2017-06-28T04:08:09.175Z,20.01
2017-06-28T04:09:10.978Z,20.02
2017-06-28T04:10:12.783Z,20.08
2017-06-28T04:11:14.653Z,20.14
2017-06-28T04:12:16.518Z,20.16
2017-06-28T04:13:18.384Z,20.10
2017-06-28T04:14:32.526Z,20.18
2017-06-28T04:15:34.393Z,20.20
2017-06-28T04:16:36.279Z,20.20
2017-06-28T04:17:38.170Z,20.17
2017-06-28T04:18:39.993Z,20.31
2017-06-28T04:19:41.796Z,20.32
2017-06-28T04:20:43.668Z,20.38
2017-06-28T04:21:45.554Z,20.38
2017-06-28T04:22:47.437Z,20.48
2017-06-28T04:24:01.578Z,20.38
2017-06-28T04:25:03.462Z,20.52
2017-06-28T04:26:05.335Z,20.54
2017-06-28T04:27:07.227Z,20.61
2017-06-28T04:28:09.055Z,20.57
2017-06-28T04:29:10.881Z,20.61
2017-06-28T04:30:12.750Z,20.69
2017-06-28T04:31:14.618Z,20.62
2017-06-28T04:32:16.508Z,20.52
2017-06-28T04:33:30.709Z,20.52
2017-06-28T04:34:32.575Z,20.51
2017-06-28T04:35:34.464Z,20.58
2017-06-28T04:36:36.355Z,20.55
2017-06-28T04:37:38.185Z,20.59
2017-06-28T04:38:40.012Z,20.62
2017-06-28T04:39:41.899Z,20.54
2017-06-28T04:40:43.787Z,20.58
2017-06-28T04:41:45.657Z,20.59
2017-06-28T04:42:59.796Z,20.57
2017-06-28T04:44:01.687Z,20.54
2017-06-28T04:45:03.572Z,20.59
2017-06-28T04:46:05.447Z,20.55
2017-06-28T04:47:07.271Z,20.55
2017-06-28T04:48:09.079Z,20.55
2017-06-28T04:49:10.945Z,20.42
2017-06-28T04:50:12.839Z,20.38
2017-06-28T04:51:14.733Z,20.32
2017-06-28T04:52:28.888Z,20.32
2017-06-28T04:53:30.759Z,20.24
2017-06-28T04:54:32.635Z,20.20
2017-06-28T04:55:34.534Z,20.17
2017-06-28T04:56:36.356Z,20.08
2017-06-28T04:57:38.165Z,20.11
2017-06-28T04:58:40.056Z,20.24
2017-06-28T04:59:41.919Z,20.21
2017-06-28T05:00:43.743Z,20.24
2017-06-28T05:01:57.879Z,20.31
2017-06-28T05:02:59.747Z,20.36
2017-06-28T05:04:01.617Z,20.47
2017-06-28T05:05:03.490Z,20.57
2017-06-28T05:06:05.319Z,20.61
2017-06-28T05:07:07.145Z,20.69
2017-06-28T05:08:09.014Z,20.84
2017-06-28T05:09:10.884Z,20.73
2017-06-28T05:10:12.778Z,20.57
2017-06-28T05:11:26.932Z,20.51
2017-06-28T05:12:28.807Z,20.39
2017-06-28T05:13:30.694Z,20.32
2017-06-28T05:14:32.566Z,20.29
2017-06-28T05:15:34.355Z,20.48
2017-06-28T05:16:36.178Z,20.59
2017-06-28T05:17:38.048Z,20.61
2017-06-28T05:18:39.922Z,20.70
2017-06-28T05:19:41.812Z,20.88
2017-06-28T05:20:55.948Z,20.97
2017-06-28T05:21:57.837Z,21.09
2017-06-28T05:22:59.700Z,21.19
2017-06-28T05:24:01.570Z,21.29
2017-06-28T05:25:03.376Z,21.31
2017-06-28T05:26:05.184Z,21.32
2017-06-28T05:27:07.069Z,21.25
2017-06-28T05:28:08.941Z,21.29
2017-06-28T05:29:10.832Z,21.28
2017-06-28T05:30:24.970Z,21.13
2017-06-28T05:31:26.842Z,21.12
2017-06-28T05:32:28.711Z,21.17
2017-06-28T05:33:30.604Z,21.19
2017-06-28T05:34:32.434Z,21.24
2017-06-28T05:35:34.242Z,21.40
2017-06-28T05:36:36.132Z,21.44
2017-06-28T05:37:38.023Z,21.42
2017-06-28T05:38:39.912Z,21.31
2017-06-28T05:39:54.053Z,21.19
2017-06-28T05:40:55.940Z,21.28
2017-06-28T05:41:57.831Z,21.31
2017-06-28T05:42:59.720Z,21.28
2017-06-28T05:44:01.548Z,21.43
2017-06-28T05:45:03.374Z,21.38
2017-06-28T05:46:05.263Z,21.53
2017-06-28T05:47:07.155Z,21.58
2017-06-28T05:48:09.047Z,21.72
2017-06-28T05:49:23.261Z,21.82
2017-06-28T05:50:25.149Z,21.87
2017-06-28T05:51:27.045Z,21.87
2017-06-28T05:52:28.933Z,21.99
2017-06-28T05:53:30.763Z,22.06
2017-06-28T05:54:32.589Z,22.12
2017-06-28T05:55:34.462Z,22.14
2017-06-28T05:56:36.349Z,22.06
2017-06-28T05:57:38.220Z,21.87
2017-06-28T05:58:52.361Z,21.72
2017-06-28T05:59:54.252Z,21.79
2017-06-28T06:00:56.143Z,21.72
2017-06-28T06:01:58.031Z,21.83
2017-06-28T06:02:59.844Z,21.94
2017-06-28T06:04:01.647Z,22.00
2017-06-28T06:05:03.516Z,22.05
2017-06-28T06:06:05.389Z,21.87
2017-06-28T06:07:07.260Z,21.74
2017-06-28T06:08:21.421Z,21.67
2017-06-28T06:09:23.291Z,21.47
2017-06-28T06:10:25.182Z,21.28
2017-06-28T06:11:27.060Z,21.32
2017-06-28T06:12:28.891Z,21.25
2017-06-28T06:13:30.717Z,21.12
2017-06-28T06:14:32.590Z,21.24
2017-06-28T06:15:34.486Z,21.49
2017-06-28T06:16:36.376Z,21.62
2017-06-28T06:17:50.512Z,21.68
2017-06-28T06:18:52.411Z,21.74
2017-06-28T06:19:54.266Z,21.68
2017-06-28T06:20:56.152Z,21.69
2017-06-28T06:21:57.967Z,21.65
2017-06-28T06:22:59.789Z,21.83
2017-06-28T06:24:01.656Z,21.94
2017-06-28T06:25:03.529Z,22.03
2017-06-28T06:26:05.418Z,22.15
2017-06-28T06:27:19.559Z,22.36
2017-06-28T06:28:21.434Z,22.51
2017-06-28T06:29:23.323Z,22.60
2017-06-28T06:30:25.194Z,22.72
2017-06-28T06:31:27.027Z,22.70
2017-06-28T06:32:28.833Z,22.64
2017-06-28T06:33:30.727Z,22.68
2017-06-28T06:34:32.629Z,22.75
2017-06-28T06:35:34.491Z,22.77
2017-06-28T06:36:48.657Z,22.77
2017-06-28T06:37:50.545Z,22.83
2017-06-28T06:38:52.435Z,22.88
2017-06-28T06:39:54.306Z,22.90
2017-06-28T06:40:56.131Z,23.00
2017-06-28T06:41:57.937Z,23.02
2017-06-28T06:42:59.812Z,22.77
2017-06-28T06:44:01.704Z,22.70
2017-06-28T06:45:03.592Z,22.60
2017-06-28T06:46:17.735Z,22.64
2017-06-28T06:47:19.606Z,22.77
2017-06-28T06:48:21.478Z,22.79
2017-06-28T06:49:23.367Z,22.76
2017-06-28T06:50:25.202Z,22.72
2017-06-28T06:51:27.035Z,22.82
2017-06-28T06:52:28.924Z,22.85
2017-06-28T06:53:30.818Z,23.02
2017-06-28T06:54:32.707Z,22.98
2017-06-28T06:55:46.870Z,23.01
2017-06-28T06:56:48.762Z,23.01
2017-06-28T06:57:50.659Z,23.02
2017-06-28T06:58:52.535Z,23.04
2017-06-28T06:59:54.353Z,23.19
2017-06-28T07:00:56.217Z,23.25
2017-06-28T07:01:58.088Z,23.47
2017-06-28T07:02:59.959Z,23.54
2017-06-28T07:04:01.916Z,23.38
2017-06-28T07:05:16.057Z,23.38
2017-06-28T07:06:17.951Z,23.51
2017-06-28T07:07:19.814Z,23.63
2017-06-28T07:08:21.687Z,23.69
2017-06-28T07:09:23.538Z,23.75
2017-06-28T07:10:25.368Z,23.66
2017-06-28T07:11:27.258Z,23.68
2017-06-28T07:12:29.129Z,23.66
2017-06-28T07:13:31.007Z,23.55
2017-06-28T07:14:45.159Z,23.76
2017-06-28T07:15:47.035Z,23.70
2017-06-28T07:16:48.955Z,23.78
2017-06-28T07:17:50.813Z,23.94
2017-06-28T07:18:52.640Z,23.94
2017-06-28T07:19:54.449Z,24.10
2017-06-28T07:20:56.341Z,24.18
2017-06-28T07:21:58.214Z,24.47
2017-06-28T07:23:00.105Z,24.80
2017-06-28T07:24:14.246Z,25.08
2017-06-28T07:25:16.123Z,25.23
2017-06-28T07:26:18.014Z,25.58
2017-06-28T07:27:19.912Z,25.70
2017-06-28T07:28:21.747Z,25.76
2017-06-28T07:29:23.575Z,25.95
2017-06-28T07:30:25.473Z,26.07
2017-06-28T07:31:27.363Z,26.07
2017-06-28T07:32:29.260Z,25.91
2017-06-28T07:33:43.405Z,25.73
2017-06-28T07:34:45.297Z,25.65
2017-06-28T07:35:47.166Z,25.50
2017-06-28T07:36:49.039Z,25.25
2017-06-28T07:37:50.855Z,25.18
2017-06-28T07:38:52.660Z,25.09
2017-06-28T07:39:54.537Z,25.08
2017-06-28T07:40:56.413Z,25.00
2017-06-28T07:41:58.306Z,25.05
2017-06-28T07:43:12.449Z,24.95
2017-06-28T07:44:14.320Z,24.99
2017-06-28T07:45:16.198Z,25.10
2017-06-28T07:46:18.089Z,25.15
2017-06-28T07:47:19.901Z,25.21
2017-06-28T07:48:21.736Z,25.62
2017-06-28T07:49:23.625Z,25.72
2017-06-28T07:50:25.503Z,25.85
2017-06-28T07:51:27.351Z,25.80
2017-06-28T07:52:41.496Z,25.80
2017-06-28T07:53:43.366Z,25.92
2017-06-28T07:54:45.241Z,26.15
2017-06-28T07:55:47.134Z,26.23
2017-06-28T07:56:48.946Z,26.28
2017-06-28T07:57:50.761Z,26.44
2017-06-28T07:58:52.656Z,26.40
2017-06-28T07:59:54.552Z,26.48
2017-06-28T08:00:56.453Z,26.47
2017-06-28T08:02:10.617Z,26.39
2017-06-28T08:03:12.489Z,26.50
2017-06-28T08:04:14.355Z,26.58
2017-06-28T08:05:16.256Z,26.44
2017-06-28T08:06:18.094Z,26.25
2017-06-28T08:07:19.927Z,26.06
2017-06-28T08:08:21.819Z,25.79
2017-06-28T08:09:23.693Z,25.72
2017-06-28T08:10:25.571Z,25.69
2017-06-28T08:11:39.731Z,25.70
2017-06-28T08:12:41.605Z,25.87
2017-06-28T08:13:43.476Z,26.02
2017-06-28T08:14:45.345Z,26.12
2017-06-28T08:15:47.161Z,26.23
2017-06-28T08:16:48.989Z,26.15
2017-06-28T08:17:50.870Z,26.01
2017-06-28T08:18:52.744Z,25.95
2017-06-28T08:19:54.615Z,25.85
2017-06-28T08:21:08.758Z,25.73
2017-06-28T08:22:10.647Z,25.77
2017-06-28T08:23:12.520Z,25.70
2017-06-28T08:24:14.415Z,25.62
2017-06-28T08:25:16.224Z,25.64
2017-06-28T08:26:18.034Z,25.61
2017-06-28T08:27:19.913Z,25.72
2017-06-28T08:28:21.811Z,25.85
2017-06-28T08:29:23.702Z,26.01
2017-06-28T08:30:37.848Z,26.06
2017-06-28T08:31:39.721Z,26.21
2017-06-28T08:32:41.592Z,26.13
2017-06-28T08:33:43.461Z,26.12
2017-06-28T08:34:45.270Z,26.02
2017-06-28T08:35:47.081Z,26.10
2017-06-28T08:36:48.956Z,26.26
2017-06-28T08:37:50.833Z,26.48
2017-06-28T08:38:52.727Z,26.75
2017-06-28T08:40:06.898Z,26.76
2017-06-28T08:41:08.787Z,26.72
2017-06-28T08:42:10.680Z,26.72
2017-06-28T08:43:12.572Z,26.91
2017-06-28T08:44:14.388Z,26.99
2017-06-28T08:45:16.201Z,27.07
2017-06-28T08:46:18.091Z,27.12
2017-06-28T08:47:19.966Z,27.17
2017-06-28T08:48:21.837Z,27.13
2017-06-28T08:49:35.997Z,27.02
2017-06-28T08:50:37.870Z,27.02
2017-06-28T08:51:39.743Z,27.04
2017-06-28T08:52:41.613Z,27.00
2017-06-28T08:53:43.426Z,26.92
2017-06-28T08:54:45.254Z,26.85
2017-06-28T08:55:47.130Z,26.52
2017-06-28T08:56:49.001Z,26.32
2017-06-28T08:57:50.881Z,26.01
2017-06-28T08:59:05.046Z,25.83
2017-06-28T09:00:06.937Z,25.76
2017-06-28T09:01:08.833Z,25.62
2017-06-28T09:02:10.718Z,25.55
2017-06-28T09:03:12.535Z,25.76
2017-06-28T09:04:14.354Z,25.80
2017-06-28T09:05:16.263Z,25.76
2017-06-28T09:06:18.150Z,25.70
2017-06-28T09:07:20.021Z,25.72
2017-06-28T09:08:34.164Z,25.83
2017-06-28T09:09:36.056Z,25.85
2017-06-28T09:10:37.950Z,25.85
2017-06-28T09:11:39.844Z,25.85
2017-06-28T09:12:41.677Z,25.79
2017-06-28T09:13:43.510Z,25.60
2017-06-28T09:14:45.401Z,25.64
2017-06-28T09:15:47.293Z,25.64
2017-06-28T09:16:49.169Z,25.70
2017-06-28T09:18:03.314Z,25.62
2017-06-28T09:19:05.206Z,25.57
2017-06-28T09:20:07.096Z,25.64
2017-06-28T09:21:08.969Z,25.70
2017-06-28T09:22:10.783Z,25.77
2017-06-28T09:23:12.595Z,25.83
2017-06-28T09:24:14.490Z,25.85
2017-06-28T09:25:16.362Z,25.85
2017-06-28T09:26:18.255Z,25.65
2017-06-28T09:27:32.462Z,25.69
2017-06-28T09:28:34.331Z,25.65
2017-06-28T09:29:36.222Z,25.77
2017-06-28T09:30:38.112Z,25.79
2017-06-28T09:31:39.947Z,25.90
2017-06-28T09:32:41.780Z,25.99
2017-06-28T09:33:43.675Z,26.01
2017-06-28T09:34:45.555Z,26.20
2017-06-28T09:35:47.441Z,26.44
2017-06-28T09:37:01.602Z,26.51
2017-06-28T09:38:03.495Z,26.50
2017-06-28T09:39:05.387Z,26.58
2017-06-28T09:40:07.261Z,26.58
2017-06-28T09:41:09.094Z,26.54
2017-06-28T09:42:10.919Z,26.54
2017-06-28T09:43:12.812Z,26.39
2017-06-28T09:44:14.687Z,26.36
2017-06-28T09:45:16.580Z,26.43
2017-06-28T09:46:30.746Z,26.62
2017-06-28T09:47:32.632Z,26.82
2017-06-28T09:48:34.508Z,26.97
2017-06-28T09:49:36.402Z,27.02
2017-06-28T09:50:38.234Z,27.03
2017-06-28T09:51:40.059Z,27.09
2017-06-28T09:52:41.930Z,27.17
2017-06-28T09:53:43.827Z,27.12
2017-06-28T09:54:45.712Z,27.19
2017-06-28T09:55:59.863Z,27.02
2017-06-28T09:57:01.755Z,26.99
2017-06-28T09:58:03.649Z,26.88
2017-06-28T09:59:05.544Z,26.89
2017-06-28T10:00:07.377Z,26.85
2017-06-28T10:01:09.188Z,26.80
2017-06-28T10:02:11.085Z,26.70
2017-06-28T10:03:12.976Z,26.80
2017-06-28T10:04:14.871Z,26.89
2017-06-28T10:05:29.031Z,26.92
2017-06-28T10:06:30.903Z,26.99
2017-06-28T10:07:32.777Z,27.06
2017-06-28T10:08:34.648Z,27.07
2017-06-28T10:09:36.462Z,27.14
2017-06-28T10:10:38.289Z,27.19
2017-06-28T10:11:40.169Z,27.25
2017-06-28T10:12:42.046Z,27.39
2017-06-28T10:13:43.940Z,27.49
2017-06-28T10:14:58.102Z,27.57
2017-06-28T10:15:59.998Z,27.51
2017-06-28T10:17:01.885Z,27.66
2017-06-28T10:18:03.757Z,27.70
2017-06-28T10:19:05.573Z,27.74
2017-06-28T10:20:07.379Z,27.94
2017-06-28T10:21:09.253Z,28.17
2017-06-28T10:22:11.131Z,28.21
2017-06-28T10:23:13.023Z,28.41
2017-06-28T10:24:27.215Z,28.41
2017-06-28T10:25:29.091Z,28.68
2017-06-28T10:26:30.985Z,28.83
2017-06-28T10:27:32.881Z,29.08
2017-06-28T10:28:34.713Z,29.24
2017-06-28T10:29:36.527Z,29.15
2017-06-28T10:30:38.403Z,29.14
2017-06-28T10:31:40.275Z,29.08
2017-06-28T10:32:42.148Z,28.77
2017-06-28T10:33:56.342Z,28.85
2017-06-28T10:34:58.241Z,28.83
2017-06-28T10:36:00.134Z,28.68
2017-06-28T10:37:02.032Z,28.56
2017-06-28T10:38:03.869Z,28.43
2017-06-28T10:39:05.701Z,28.59
2017-06-28T10:40:07.595Z,28.64
2017-06-28T10:41:09.471Z,28.77
2017-06-28T10:42:11.349Z,28.92
2017-06-28T10:43:25.516Z,29.02
2017-06-28T10:44:27.407Z,29.15
2017-06-28T10:45:29.298Z,29.23
2017-06-28T10:46:31.169Z,29.19
2017-06-28T10:47:32.978Z,29.02
2017-06-28T10:48:34.796Z,28.98
2017-06-28T10:49:36.690Z,28.86
2017-06-28T10:50:38.588Z,28.86
2017-06-28T10:51:40.482Z,28.77
2017-06-28T10:52:54.651Z,28.81
2017-06-28T10:53:56.522Z,28.90
2017-06-28T10:54:58.453Z,28.89
2017-06-28T10:56:00.351Z,28.83
2017-06-28T10:57:02.182Z,28.73
2017-06-28T10:58:04.015Z,28.62
2017-06-28T10:59:05.909Z,28.58
2017-06-28T11:00:07.796Z,28.41
2017-06-28T11:01:09.671Z,28.31
2017-06-28T11:02:23.806Z,28.33
2017-06-28T11:03:25.705Z,28.27
2017-06-28T11:04:27.575Z,28.34
2017-06-28T11:05:29.451Z,28.25
2017-06-28T11:06:31.267Z,28.37
2017-06-28T11:07:33.094Z,28.27
2017-06-28T11:08:34.989Z,28.34
2017-06-28T11:09:36.879Z,28.39
2017-06-28T11:10:39.123Z,28.34
2017-06-28T11:11:53.232Z,28.27
2017-06-28T11:12:55.109Z,28.27
2017-06-28T11:13:57.001Z,28.17
2017-06-28T11:14:58.913Z,28.39
2017-06-28T11:16:00.742Z,28.54
2017-06-28T11:17:02.557Z,28.66
2017-06-28T11:18:04.450Z,28.81
2017-06-28T11:19:06.345Z,29.02
2017-06-28T11:20:08.236Z,29.00
2017-06-28T11:21:22.377Z,29.02
2017-06-28T11:22:24.253Z,29.04
2017-06-28T11:23:26.237Z,29.09
2017-06-28T11:24:28.269Z,29.23
2017-06-28T11:25:30.170Z,29.30
2017-06-28T11:26:31.998Z,29.42
2017-06-28T11:27:33.871Z,29.53
2017-06-28T11:28:35.746Z,29.60
2017-06-28T11:29:37.635Z,29.58
2017-06-28T11:30:51.784Z,29.60
2017-06-28T11:31:53.676Z,29.57
2017-06-28T11:32:55.561Z,29.58
2017-06-28T11:33:57.452Z,29.55
2017-06-28T11:34:59.271Z,29.52
2017-06-28T11:36:01.104Z,29.52
2017-06-28T11:37:02.997Z,29.53
2017-06-28T11:38:04.885Z,29.46
2017-06-28T11:39:06.777Z,29.57
2017-06-28T11:40:20.938Z,29.57
2017-06-28T11:41:22.815Z,29.60
2017-06-28T11:42:24.703Z,29.68
2017-06-28T11:43:26.578Z,29.71
2017-06-28T11:44:28.389Z,29.85
2017-06-28T11:45:30.197Z,29.94
2017-06-28T11:46:32.065Z,29.95
2017-06-28T11:47:33.961Z,29.83
2017-06-28T11:48:35.809Z,29.76
2017-06-28T11:49:49.957Z,29.65
2017-06-28T11:50:51.830Z,29.67
2017-06-28T11:51:53.721Z,29.68
2017-06-28T11:52:55.590Z,29.61
2017-06-28T11:53:57.402Z,29.64
2017-06-28T11:54:59.211Z,29.46
2017-06-28T11:56:01.081Z,29.45
2017-06-28T11:57:02.957Z,29.51
2017-06-28T11:58:04.849Z,29.52
2017-06-28T11:59:19.021Z,29.48
2017-06-28T12:00:20.910Z,29.41
2017-06-28T12:01:22.781Z,29.31
2017-06-28T12:02:24.679Z,29.15
2017-06-28T12:03:26.512Z,29.00
2017-06-28T12:04:28.341Z,28.93
2017-06-28T12:05:30.214Z,28.88
2017-06-28T12:06:32.114Z,29.08
2017-06-28T12:07:34.009Z,29.21
2017-06-28T12:08:48.174Z,29.31
2017-06-28T12:09:50.045Z,29.41
2017-06-28T12:10:51.930Z,29.48
2017-06-28T12:11:53.828Z,29.48
2017-06-28T12:12:55.667Z,29.57
2017-06-28T12:13:57.495Z,29.61
2017-06-28T12:14:59.367Z,29.64
2017-06-28T12:16:01.256Z,29.63
2017-06-28T12:17:03.135Z,29.63
2017-06-28T12:18:17.305Z,29.65
2017-06-28T12:19:19.195Z,29.67
2017-06-28T12:20:21.069Z,29.73
2017-06-28T12:21:22.955Z,29.76
2017-06-28T12:22:24.777Z,29.95
2017-06-28T12:23:26.593Z,30.10
2017-06-28T12:24:28.476Z,30.42
2017-06-28T12:25:30.367Z,30.58
2017-06-28T12:26:32.276Z,30.86
2017-06-28T12:27:46.567Z,31.25
2017-06-28T12:28:48.416Z,31.35
2017-06-28T12:29:50.312Z,31.58
2017-06-28T12:30:52.208Z,31.80
2017-06-28T12:31:54.026Z,31.89
2017-06-28T12:32:55.841Z,32.04
2017-06-28T12:33:57.716Z,32.14
2017-06-28T12:34:59.614Z,32.19
2017-06-28T12:36:01.470Z,32.19
2017-06-28T12:37:15.623Z,32.28
2017-06-28T12:38:17.585Z,32.25
2017-06-28T12:39:19.450Z,32.19
2017-06-28T12:40:21.394Z,32.23
2017-06-28T12:41:23.242Z,32.35
2017-06-28T12:42:25.061Z,32.45
2017-06-28T12:43:26.952Z,32.66
2017-06-28T12:44:28.880Z,32.60
2017-06-28T12:45:30.862Z,32.84
2017-06-28T12:46:45.024Z,32.88
2017-06-28T12:47:46.915Z,33.07
2017-06-28T12:48:48.793Z,33.12
2017-06-28T12:49:50.668Z,33.19
2017-06-28T12:50:52.486Z,33.21
2017-06-28T12:51:54.318Z,33.21
2017-06-28T12:52:56.195Z,33.34
2017-06-28T12:53:58.071Z,33.32
2017-06-28T12:54:59.968Z,33.49
2017-06-28T12:56:14.137Z,33.54
2017-06-28T12:57:16.013Z,33.47
2017-06-28T12:58:17.906Z,33.57
2017-06-28T12:59:19.806Z,33.63
2017-06-28T13:00:21.622Z,33.68
2017-06-28T13:01:23.454Z,33.79
2017-06-28T13:02:25.293Z,33.82
2017-06-28T13:03:27.128Z,33.95
2017-06-28T13:04:29.078Z,33.90
2017-06-28T13:05:43.430Z,34.05
2017-06-28T13:06:45.417Z,33.97
2017-06-28T13:07:47.312Z,34.10
2017-06-28T13:08:49.207Z,34.05
2017-06-28T13:09:51.023Z,34.09
2017-06-28T13:10:52.855Z,34.19
2017-06-28T13:11:54.729Z,34.09
2017-06-28T13:12:56.606Z,34.05
2017-06-28T13:13:58.486Z,33.97
2017-06-28T13:15:12.655Z,33.94
2017-06-28T13:16:14.552Z,33.81
2017-06-28T13:17:16.450Z,33.65
2017-06-28T13:18:18.345Z,33.53
2017-06-28T13:19:20.160Z,33.31
2017-06-28T13:20:21.996Z,33.22
2017-06-28T13:21:23.891Z,33.14
2017-06-28T13:22:25.789Z,33.03
2017-06-28T13:23:27.683Z,32.89
2017-06-28T13:24:41.837Z,32.81
2017-06-28T13:25:43.731Z,32.67
2017-06-28T13:26:45.600Z,32.67
2017-06-28T13:27:47.490Z,32.59
2017-06-28T13:28:49.306Z,32.56
2017-06-28T13:29:51.123Z,32.55
2017-06-28T13:30:53.017Z,32.56
2017-06-28T13:31:54.911Z,32.59
2017-06-28T13:32:56.804Z,32.69
2017-06-28T13:34:10.949Z,32.66